createdAt,value
2024-01-15T00:00:09.177Z,54.75
2024-01-15T00:01:09.279Z,53.55
2024-01-15T00:02:09.184Z,52.16
2024-01-15T00:03:09.587Z,50.09
2024-01-15T00:04:09.289Z,48.87
2024-01-15T00:05:09.161Z,54.55
2024-01-15T00:06:09.257Z,49.43
2024-01-15T00:07:09.188Z,49.91
2024-01-15T00:08:09.130Z,51.71
2024-01-15T00:09:09.151Z,52.33
2024-01-15T00:10:09.126Z,53.75
2024-01-15T00:11:09.116Z,53.51
2024-01-15T00:12:09.128Z,51.62
2024-01-15T00:13:09.114Z,51.04
2024-01-15T00:14:09.091Z,51.38
2024-01-15T00:15:09.109Z,52.68
2024-01-15T00:16:09.074Z,52.06
2024-01-15T00:17:09.070Z,51.29
2024-01-15T00:18:10.278Z,49.99
2024-01-15T00:19:09.116Z,48.62
2024-01-15T00:20:09.048Z,52.34
2024-01-15T00:21:09.156Z,50.35
2024-01-15T00:22:09.037Z,51.47
2024-01-15T00:23:09.075Z,52.14
2024-01-15T00:24:09.065Z,50.45
2024-01-15T00:25:09.012Z,53.44
2024-01-15T00:26:10.731Z,54.87
2024-01-15T00:27:10.025Z,53.51
2024-01-15T00:28:09.011Z,53.38
2024-01-15T00:29:09.032Z,51.90
2024-01-15T00:30:09.110Z,54.86
2024-01-15T00:31:09.057Z,50.11
2024-01-15T00:32:08.982Z,47.94
2024-01-15T00:33:09.087Z,47.97
2024-01-15T00:34:09.147Z,47.73
2024-01-15T00:35:08.989Z,47.84
2024-01-15T00:36:08.986Z,49.40
2024-01-15T00:37:08.957Z,54.57
2024-01-15T00:38:08.944Z,49.33
2024-01-15T00:39:08.962Z,50.10
2024-01-15T00:40:08.976Z,49.19
2024-01-15T00:41:08.926Z,49.34
2024-01-15T00:42:08.947Z,48.12
2024-01-15T00:43:09.120Z,53.37
2024-01-15T00:44:08.909Z,49.96
2024-01-15T00:45:08.948Z,52.10
2024-01-15T00:46:09.884Z,53.11
2024-01-15T00:47:08.899Z,48.86
2024-01-15T00:48:09.014Z,52.39
2024-01-15T00:49:08.951Z,53.19
2024-01-15T00:50:08.862Z,51.93
2024-01-15T00:51:08.885Z,50.22
2024-01-15T00:52:08.862Z,52.53
2024-01-15T00:53:08.848Z,52.97
2024-01-15T00:54:08.879Z,51.14
2024-01-15T00:55:08.831Z,49.36
2024-01-15T00:56:08.819Z,50.84
2024-01-15T00:57:08.834Z,52.45
2024-01-15T00:58:08.817Z,51.66
2024-01-15T00:59:08.822Z,51.27
2024-01-15T01:00:08.846Z,50.98
2024-01-15T01:01:08.926Z,55.08
2024-01-15T01:02:08.784Z,51.97
2024-01-15T01:03:08.828Z,53.68
2024-01-15T01:04:08.860Z,51.88
2024-01-15T01:05:08.831Z,51.22
2024-01-15T01:06:08.762Z,48.37
2024-01-15T01:07:08.756Z,49.82
2024-01-15T01:08:08.742Z,51.30
2024-01-15T01:09:08.754Z,53.27
2024-01-15T01:10:08.738Z,55.13
2024-01-15T01:11:08.718Z,57.86
2024-01-15T01:12:08.932Z,51.49
2024-01-15T01:13:08.734Z,49.45
2024-01-15T01:14:08.704Z,56.41
2024-01-15T01:15:08.754Z,54.07
2024-01-15T01:16:08.703Z,51.19
2024-01-15T01:17:08.725Z,53.04
2024-01-15T01:18:08.812Z,48.52
2024-01-15T01:19:09.276Z,49.21
2024-01-15T01:20:08.823Z,58.13
2024-01-15T01:21:08.719Z,55.53
2024-01-15T01:22:08.669Z,50.99
2024-01-15T01:23:08.670Z,53.02
2024-01-15T01:24:08.690Z,49.97
2024-01-15T01:25:08.637Z,48.53
2024-01-15T01:26:08.632Z,49.60
2024-01-15T01:27:08.649Z,52.91
2024-01-15T01:28:08.617Z,50.47
2024-01-15T01:29:08.600Z,50.21
2024-01-15T01:30:08.728Z,51.77
2024-01-15T01:31:08.755Z,50.53
2024-01-15T01:32:08.585Z,48.99
2024-01-15T01:33:08.710Z,54.29
2024-01-15T01:34:08.667Z,49.93
2024-01-15T01:35:08.562Z,56.20
2024-01-15T01:36:08.592Z,55.24
2024-01-15T01:37:08.542Z,53.49
2024-01-15T01:38:08.567Z,55.43
2024-01-15T01:39:08.586Z,54.50
2024-01-15T01:40:08.533Z,54.33
2024-01-15T01:41:08.540Z,52.05
2024-01-15T01:42:08.569Z,53.63
2024-01-15T01:43:08.525Z,55.13
2024-01-15T01:44:08.664Z,56.01
2024-01-15T01:45:08.587Z,48.87
2024-01-15T01:46:08.580Z,48.04
2024-01-15T01:47:08.484Z,48.21
2024-01-15T01:48:08.734Z,53.68
2024-01-15T01:49:08.581Z,52.49
2024-01-15T01:50:08.502Z,49.00
2024-01-15T01:51:08.509Z,48.23
2024-01-15T01:52:08.526Z,49.27
2024-01-15T01:53:08.446Z,47.93
2024-01-15T01:54:08.514Z,49.09
2024-01-15T01:55:08.475Z,52.83
2024-01-15T01:56:08.442Z,50.63
2024-01-15T01:57:08.498Z,55.69
2024-01-15T01:58:08.441Z,53.53
2024-01-15T01:59:08.412Z,53.11
2024-01-15T02:00:08.456Z,52.96
2024-01-15T02:01:08.582Z,51.76
2024-01-15T02:02:08.399Z,52.09
2024-01-15T02:03:08.430Z,51.82
2024-01-15T02:04:08.465Z,51.22
2024-01-15T02:05:08.406Z,49.87
2024-01-15T02:06:08.614Z,50.88
2024-01-15T02:07:08.410Z,50.76
2024-01-15T02:08:08.362Z,50.54
2024-01-15T02:09:08.376Z,54.96
2024-01-15T02:10:08.360Z,54.66
2024-01-15T02:11:08.334Z,54.50
2024-01-15T02:12:08.367Z,52.69
2024-01-15T02:13:08.340Z,51.04
2024-01-15T02:14:08.312Z,51.82
2024-01-15T02:15:08.341Z,47.98
2024-01-15T02:16:08.298Z,50.83
2024-01-15T02:17:08.318Z,47.83
2024-01-15T02:18:08.434Z,49.92
2024-01-15T02:19:08.343Z,55.72
2024-01-15T02:20:08.264Z,51.73
2024-01-15T02:21:08.303Z,54.93
2024-01-15T02:22:08.254Z,54.85
2024-01-15T02:23:08.254Z,54.25
2024-01-15T02:24:08.260Z,52.48
2024-01-15T02:25:08.232Z,51.87
2024-01-15T02:26:08.223Z,54.56
2024-01-15T02:27:08.243Z,49.78
2024-01-15T02:28:08.246Z,49.23
2024-01-15T02:29:08.210Z,51.62
2024-01-15T02:30:08.451Z,53.96
2024-01-15T02:31:08.291Z,50.22
2024-01-15T02:32:08.197Z,53.14
2024-01-15T02:33:08.331Z,55.43
2024-01-15T02:34:08.364Z,54.52
2024-01-15T02:35:08.182Z,55.32
2024-01-15T02:36:08.183Z,54.23
2024-01-15T02:37:08.158Z,48.92
2024-01-15T02:38:08.140Z,52.05
2024-01-15T02:39:08.188Z,49.74
2024-01-15T02:40:08.129Z,48.05
2024-01-15T02:41:08.124Z,50.28
2024-01-15T02:42:08.154Z,59.25
2024-01-15T02:43:08.119Z,51.32
2024-01-15T02:44:08.103Z,53.90
2024-01-15T02:45:08.144Z,52.09
2024-01-15T02:46:08.100Z,52.40
2024-01-15T02:47:08.084Z,54.10
2024-01-15T02:48:08.181Z,56.82
2024-01-15T02:49:08.139Z,55.27
2024-01-15T02:50:08.186Z,54.27
2024-01-15T02:51:08.085Z,50.15
2024-01-15T02:52:08.054Z,47.52
2024-01-15T02:53:08.045Z,53.09
2024-01-15T02:54:08.908Z,55.37
2024-01-15T02:55:09.055Z,57.37
2024-01-15T02:56:08.059Z,55.20
2024-01-15T02:57:08.072Z,50.65
2024-01-15T02:58:08.035Z,52.43
2024-01-15T02:59:08.021Z,53.58
2024-01-15T03:00:08.053Z,52.24
2024-01-15T03:01:08.204Z,53.35
2024-01-15T03:02:08.002Z,59.87
2024-01-15T03:03:08.131Z,53.27
2024-01-15T03:04:08.168Z,53.37
2024-01-15T03:05:07.995Z,54.91
2024-01-15T03:06:08.085Z,53.51
2024-01-15T03:07:07.956Z,51.76
2024-01-15T03:08:07.970Z,53.38
2024-01-15T03:09:07.996Z,55.17
2024-01-15T03:10:07.940Z,56.62
2024-01-15T03:11:07.933Z,52.29
2024-01-15T03:12:07.962Z,50.27
2024-01-15T03:13:08.924Z,52.71
2024-01-15T03:14:07.919Z,56.04
2024-01-15T03:15:08.036Z,55.40
2024-01-15T03:16:07.913Z,57.99
2024-01-15T03:17:07.923Z,52.40
2024-01-15T03:18:08.017Z,51.60
2024-01-15T03:19:07.954Z,50.50
2024-01-15T03:20:08.992Z,48.73
2024-01-15T03:21:07.949Z,52.08
2024-01-15T03:22:07.868Z,53.70
2024-01-15T03:23:07.913Z,54.65
2024-01-15T03:24:07.882Z,58.03
2024-01-15T03:25:07.858Z,51.74
2024-01-15T03:26:07.844Z,55.82
2024-01-15T03:27:07.867Z,55.98
2024-01-15T03:28:07.850Z,54.55
2024-01-15T03:29:07.823Z,54.70
2024-01-15T03:30:07.992Z,57.13
2024-01-15T03:31:08.001Z,53.31
2024-01-15T03:32:07.802Z,52.35
2024-01-15T03:33:07.882Z,55.51
2024-01-15T03:34:08.089Z,52.23
2024-01-15T03:35:07.888Z,52.31
2024-01-15T03:36:07.846Z,52.72
2024-01-15T03:37:07.790Z,55.70
2024-01-15T03:38:07.769Z,54.89
2024-01-15T03:39:07.881Z,54.35
2024-01-15T03:40:07.804Z,55.44
2024-01-15T03:41:07.743Z,56.22
2024-01-15T03:42:07.767Z,52.93
2024-01-15T03:43:07.742Z,56.58
2024-01-15T03:44:07.726Z,57.37
2024-01-15T03:45:07.759Z,52.57
2024-01-15T03:46:07.707Z,55.25
2024-01-15T03:47:07.711Z,53.30
2024-01-15T03:48:07.823Z,53.48
2024-01-15T03:49:07.782Z,57.30
2024-01-15T03:50:07.686Z,58.72
2024-01-15T03:51:07.725Z,57.75
2024-01-15T03:52:07.690Z,54.54
2024-01-15T03:53:07.676Z,52.40
2024-01-15T03:54:07.715Z,57.27
2024-01-15T03:55:07.798Z,56.05
2024-01-15T03:56:07.663Z,56.40
2024-01-15T03:57:07.655Z,56.62
2024-01-15T03:58:07.627Z,56.43
2024-01-15T03:59:07.615Z,58.86
2024-01-15T04:00:07.658Z,56.21
2024-01-15T04:01:07.712Z,55.63
2024-01-15T04:02:07.602Z,54.78
2024-01-15T04:03:07.705Z,56.83
2024-01-15T04:04:07.671Z,58.87
2024-01-15T04:05:07.578Z,56.76
2024-01-15T04:06:07.656Z,55.93
2024-01-15T04:07:07.614Z,59.93
2024-01-15T04:08:07.558Z,58.64
2024-01-15T04:09:07.592Z,60.49
2024-01-15T04:10:07.574Z,57.83
2024-01-15T04:11:07.552Z,59.55
2024-01-15T04:12:07.603Z,57.35
2024-01-15T04:13:07.524Z,60.17
2024-01-15T04:14:07.524Z,61.04
2024-01-15T04:15:07.563Z,60.02
2024-01-15T04:16:07.498Z,58.84
2024-01-15T04:17:07.544Z,58.73
2024-01-15T04:18:07.568Z,60.54
2024-01-15T04:19:07.738Z,59.64
2024-01-15T04:20:07.483Z,57.18
2024-01-15T04:21:07.516Z,58.73
2024-01-15T04:22:07.468Z,57.32
2024-01-15T04:23:07.481Z,60.19
2024-01-15T04:24:07.500Z,60.11
2024-01-15T04:25:07.472Z,61.55
2024-01-15T04:26:07.445Z,59.59
2024-01-15T04:27:07.534Z,60.23
2024-01-15T04:28:07.450Z,59.12
2024-01-15T04:29:07.423Z,58.30
2024-01-15T04:30:07.499Z,59.26
2024-01-15T04:31:07.523Z,59.53
2024-01-15T04:32:07.421Z,60.07
2024-01-15T04:33:07.578Z,60.68
2024-01-15T04:34:07.529Z,63.97
2024-01-15T04:35:07.392Z,62.47
2024-01-15T04:36:07.400Z,59.36
2024-01-15T04:37:07.443Z,59.98
2024-01-15T04:38:07.384Z,62.39
2024-01-15T04:39:07.439Z,62.02
2024-01-15T04:40:07.387Z,62.01
2024-01-15T04:41:07.355Z,61.31
2024-01-15T04:42:07.359Z,61.32
2024-01-15T04:43:07.331Z,61.17
2024-01-15T04:44:07.359Z,62.55
2024-01-15T04:45:07.514Z,61.46
2024-01-15T04:46:07.319Z,62.06
2024-01-15T04:47:07.320Z,60.75
2024-01-15T04:48:07.436Z,59.58
2024-01-15T04:49:07.341Z,62.65
2024-01-15T04:50:07.332Z,62.39
2024-01-15T04:51:07.405Z,62.71
2024-01-15T04:52:07.277Z,61.35
2024-01-15T04:53:09.103Z,60.45
2024-01-15T04:54:07.320Z,60.43
2024-01-15T04:55:07.284Z,64.57
2024-01-15T04:56:07.279Z,61.19
2024-01-15T04:57:07.283Z,62.11
2024-01-15T04:58:07.232Z,60.73
2024-01-15T04:59:07.237Z,61.03
2024-01-15T05:00:07.263Z,61.58
2024-01-15T05:01:07.323Z,61.81
2024-01-15T05:02:07.210Z,60.34
2024-01-15T05:03:07.297Z,61.36
2024-01-15T05:04:07.255Z,61.56
2024-01-15T05:05:08.197Z,60.16
2024-01-15T05:06:07.485Z,61.05
2024-01-15T05:07:07.196Z,61.51
2024-01-15T05:08:07.181Z,60.94
2024-01-15T05:09:07.246Z,62.21
2024-01-15T05:10:07.210Z,62.76
2024-01-15T05:11:07.182Z,62.07
2024-01-15T05:12:07.175Z,62.08
2024-01-15T05:13:07.157Z,60.84
2024-01-15T05:14:07.131Z,61.70
2024-01-15T05:15:07.259Z,63.31
2024-01-15T05:16:07.205Z,61.62
2024-01-15T05:17:10.559Z,62.67
2024-01-15T05:18:08.383Z,61.92
2024-01-15T05:19:07.135Z,63.31
2024-01-15T05:20:08.175Z,62.26
2024-01-15T05:21:07.172Z,63.30
2024-01-15T05:22:07.100Z,62.40
2024-01-15T05:23:07.116Z,62.23
2024-01-15T05:24:07.090Z,62.79
2024-01-15T05:25:07.058Z,62.29
2024-01-15T05:26:07.058Z,62.69
2024-01-15T05:27:07.083Z,63.33
2024-01-15T05:28:08.048Z,61.53
2024-01-15T05:29:07.051Z,61.49
2024-01-15T05:30:07.159Z,61.84
2024-01-15T05:31:07.119Z,61.90
2024-01-15T05:32:07.189Z,62.21
2024-01-15T05:33:07.189Z,63.51
2024-01-15T05:34:07.112Z,63.11
2024-01-15T05:35:06.999Z,62.83
2024-01-15T05:36:07.065Z,62.43
2024-01-15T05:37:06.983Z,64.18
2024-01-15T05:38:06.973Z,63.98
2024-01-15T05:39:07.015Z,64.61
2024-01-15T05:40:07.010Z,63.97
2024-01-15T05:41:06.989Z,64.83
2024-01-15T05:42:06.987Z,63.51
2024-01-15T05:43:06.947Z,63.56
2024-01-15T05:44:06.937Z,62.85
2024-01-15T05:45:07.038Z,63.75
2024-01-15T05:46:06.956Z,63.23
2024-01-15T05:47:06.940Z,64.05
2024-01-15T05:48:07.036Z,62.17
2024-01-15T05:49:07.007Z,62.46
2024-01-15T05:50:06.964Z,64.71
2024-01-15T05:51:06.990Z,63.42
2024-01-15T05:52:06.903Z,62.89
2024-01-15T05:53:06.864Z,64.14
2024-01-15T05:54:07.023Z,63.89
2024-01-15T05:55:06.853Z,64.98
2024-01-15T05:56:06.855Z,61.56
2024-01-15T05:57:06.918Z,61.47
2024-01-15T05:58:07.848Z,63.13
2024-01-15T05:59:06.830Z,63.89
2024-01-15T06:00:06.866Z,63.31
2024-01-15T06:01:06.880Z,62.99
2024-01-15T06:02:06.819Z,65.23
2024-01-15T06:03:06.810Z,63.79
2024-01-15T06:04:06.902Z,63.13
2024-01-15T06:05:06.814Z,63.73
2024-01-15T06:06:06.835Z,62.40
2024-01-15T06:07:06.809Z,63.21
2024-01-15T06:08:06.778Z,63.00
2024-01-15T06:09:06.838Z,62.62
2024-01-15T06:10:06.755Z,62.71
2024-01-15T06:11:06.746Z,62.98
2024-01-15T06:12:06.773Z,64.74
2024-01-15T06:13:06.732Z,64.02
2024-01-15T06:14:06.760Z,63.33
2024-01-15T06:15:06.712Z,64.04
2024-01-15T06:16:07.617Z,62.88
2024-01-15T06:17:07.720Z,61.38
2024-01-15T06:18:06.747Z,64.18
2024-01-15T06:19:06.792Z,64.83
2024-01-15T06:20:06.823Z,67.02
2024-01-15T06:21:06.674Z,65.68
2024-01-15T06:22:06.748Z,63.74
2024-01-15T06:23:06.677Z,64.05
2024-01-15T06:24:06.665Z,65.72
2024-01-15T06:25:06.658Z,64.39
2024-01-15T06:26:07.132Z,64.47
2024-01-15T06:27:06.628Z,64.17
2024-01-15T06:28:06.622Z,63.99
2024-01-15T06:29:06.639Z,64.97
2024-01-15T06:30:06.627Z,64.54
2024-01-15T06:31:06.678Z,62.75
2024-01-15T06:32:06.611Z,62.91
2024-01-15T06:33:06.642Z,63.90
2024-01-15T06:34:06.655Z,65.36
2024-01-15T06:35:06.598Z,61.95
2024-01-15T06:36:06.570Z,62.15
2024-01-15T06:37:06.586Z,63.82
2024-01-15T06:38:06.569Z,64.47
2024-01-15T06:39:06.590Z,65.09
2024-01-15T06:40:06.589Z,63.13
2024-01-15T06:41:06.567Z,63.94
2024-01-15T06:42:06.567Z,63.15
2024-01-15T06:43:06.904Z,64.89
2024-01-15T06:44:06.522Z,66.04
2024-01-15T06:45:06.538Z,63.83
2024-01-15T06:46:08.068Z,61.92
2024-01-15T06:47:06.529Z,63.70
2024-01-15T06:48:06.601Z,62.22
2024-01-15T06:49:06.561Z,64.38
2024-01-15T06:50:06.524Z,63.91
2024-01-15T06:51:06.552Z,62.48
2024-01-15T06:52:06.617Z,62.77
2024-01-15T06:53:06.472Z,61.94
2024-01-15T06:54:06.573Z,61.25
2024-01-15T06:55:06.486Z,62.17
2024-01-15T06:56:06.462Z,61.83
2024-01-15T06:57:06.532Z,61.89
2024-01-15T06:58:06.468Z,62.94
2024-01-15T06:59:06.434Z,61.94
2024-01-15T07:00:06.525Z,62.24
2024-01-15T07:01:06.508Z,60.07
2024-01-15T07:02:06.426Z,60.81
2024-01-15T07:03:06.464Z,63.57
2024-01-15T07:04:06.495Z,61.01
2024-01-15T07:05:06.557Z,62.27
2024-01-15T07:06:06.410Z,62.37
2024-01-15T07:07:06.448Z,62.01
2024-01-15T07:08:06.386Z,64.65
2024-01-15T07:09:06.378Z,62.47
2024-01-15T07:10:06.372Z,62.45
2024-01-15T07:11:06.383Z,63.13
2024-01-15T07:12:06.390Z,64.28
2024-01-15T07:13:06.357Z,64.38
2024-01-15T07:14:06.336Z,62.05
2024-01-15T07:15:06.399Z,62.53
2024-01-15T07:16:06.442Z,62.21
2024-01-15T07:17:06.334Z,62.14
2024-01-15T07:18:06.374Z,61.06
2024-01-15T07:19:06.488Z,62.79
2024-01-15T07:20:06.360Z,62.26
2024-01-15T07:21:06.306Z,60.26
2024-01-15T07:22:06.398Z,61.72
2024-01-15T07:23:06.322Z,62.26
2024-01-15T07:24:06.273Z,61.59
2024-01-15T07:25:06.489Z,59.53
2024-01-15T07:26:06.290Z,63.54
2024-01-15T07:27:06.264Z,63.49
2024-01-15T07:28:06.281Z,62.36
2024-01-15T07:29:06.257Z,62.03
2024-01-15T07:30:06.309Z,62.78
2024-01-15T07:31:06.279Z,63.33
2024-01-15T07:32:06.242Z,62.46
2024-01-15T07:33:06.320Z,62.22
2024-01-15T07:34:06.324Z,60.95
2024-01-15T07:35:06.327Z,60.56
2024-01-15T07:36:06.204Z,62.59
2024-01-15T07:37:06.195Z,62.57
2024-01-15T07:38:06.197Z,62.53
2024-01-15T07:39:06.759Z,60.97
2024-01-15T07:40:06.438Z,61.90
2024-01-15T07:41:06.198Z,63.86
2024-01-15T07:42:06.176Z,62.04
2024-01-15T07:43:06.178Z,60.62
2024-01-15T07:44:06.148Z,63.50
2024-01-15T07:45:06.146Z,63.09
2024-01-15T07:46:06.207Z,62.02
2024-01-15T07:47:06.134Z,63.46
2024-01-15T07:48:06.263Z,63.15
2024-01-15T07:49:06.158Z,63.49
2024-01-15T07:50:06.792Z,61.29
2024-01-15T07:51:06.107Z,62.71
2024-01-15T07:52:06.145Z,60.44
2024-01-15T07:53:06.111Z,61.99
2024-01-15T07:54:06.092Z,62.07
2024-01-15T07:55:06.071Z,62.58
2024-01-15T07:56:06.079Z,61.76
2024-01-15T07:57:06.095Z,61.61
2024-01-15T07:58:12.110Z,62.43
2024-01-15T07:59:08.065Z,61.04
2024-01-15T08:00:06.065Z,60.08
2024-01-15T08:01:06.184Z,61.45
2024-01-15T08:02:06.062Z,61.48
2024-01-15T08:03:06.226Z,62.25
2024-01-15T08:04:06.129Z,61.17
2024-01-15T08:05:06.193Z,61.13
2024-01-15T08:06:06.020Z,58.83
2024-01-15T08:07:06.038Z,61.49
2024-01-15T08:08:05.997Z,61.16
2024-01-15T08:09:05.988Z,62.59
2024-01-15T08:10:06.031Z,62.35
2024-01-15T08:11:06.007Z,63.16
2024-01-15T08:12:05.979Z,61.55
2024-01-15T08:13:05.991Z,60.90
2024-01-15T08:14:06.962Z,61.30
2024-01-15T08:15:05.953Z,63.73
2024-01-15T08:16:06.017Z,61.89
2024-01-15T08:17:05.923Z,61.31
2024-01-15T08:18:05.994Z,62.27
2024-01-15T08:19:06.118Z,61.73
2024-01-15T08:20:06.217Z,62.24
2024-01-15T08:21:05.905Z,60.67
2024-01-15T08:22:05.893Z,62.85
2024-01-15T08:23:05.902Z,63.35
2024-01-15T08:24:05.917Z,62.36
2024-01-15T08:25:05.880Z,62.45
2024-01-15T08:26:05.888Z,62.01
2024-01-15T08:27:05.886Z,60.77
2024-01-15T08:28:05.898Z,60.11
2024-01-15T08:29:06.886Z,61.20
2024-01-15T08:30:05.878Z,61.20
2024-01-15T08:31:05.937Z,59.80
2024-01-15T08:32:05.885Z,61.63
2024-01-15T08:33:11.404Z,60.91
2024-01-15T08:34:06.926Z,59.81
2024-01-15T08:35:05.943Z,61.49
2024-01-15T08:36:05.810Z,60.67
2024-01-15T08:37:05.808Z,59.88
2024-01-15T08:38:05.806Z,61.01
2024-01-15T08:39:05.819Z,61.46
2024-01-15T08:40:05.859Z,62.08
2024-01-15T08:41:05.786Z,60.46
2024-01-15T08:42:05.773Z,59.02
2024-01-15T08:43:05.763Z,59.57
2024-01-15T08:44:05.776Z,61.29
2024-01-15T08:45:05.749Z,61.29
2024-01-15T08:46:05.807Z,61.15
2024-01-15T08:47:05.755Z,61.57
2024-01-15T08:48:05.872Z,61.26
2024-01-15T08:49:05.827Z,62.95
2024-01-15T08:50:05.832Z,59.67
2024-01-15T08:51:05.727Z,59.80
2024-01-15T08:52:05.721Z,62.77
2024-01-15T08:53:05.725Z,58.64
2024-01-15T08:54:05.709Z,62.38
2024-01-15T08:55:05.699Z,62.47
2024-01-15T08:56:05.716Z,61.20
2024-01-15T08:57:05.690Z,61.25
2024-01-15T08:58:05.669Z,61.53
2024-01-15T08:59:05.668Z,61.92
2024-01-15T09:00:06.660Z,61.82
2024-01-15T09:01:05.846Z,61.20
2024-01-15T09:02:05.689Z,61.65
2024-01-15T09:03:05.671Z,61.03
2024-01-15T09:04:05.805Z,61.61
2024-01-15T09:05:05.907Z,60.67
2024-01-15T09:06:05.613Z,61.16
2024-01-15T09:07:05.810Z,62.63
2024-01-15T09:08:05.604Z,63.01
2024-01-15T09:09:05.622Z,62.88
2024-01-15T09:10:05.598Z,62.22
2024-01-15T09:11:05.586Z,61.06
2024-01-15T09:12:05.605Z,62.71
2024-01-15T09:13:05.576Z,61.83
2024-01-15T09:14:05.560Z,61.83
2024-01-15T09:15:05.795Z,60.98
2024-01-15T09:16:05.818Z,59.82
2024-01-15T09:17:05.615Z,60.94
2024-01-15T09:18:07.960Z,63.09
2024-01-15T09:19:05.591Z,62.22
2024-01-15T09:20:05.637Z,61.73
2024-01-15T09:21:05.553Z,61.17
2024-01-15T09:22:05.606Z,61.78
2024-01-15T09:23:05.540Z,61.58
2024-01-15T09:24:05.512Z,61.09
2024-01-15T09:25:05.670Z,59.10
2024-01-15T09:26:05.531Z,60.12
2024-01-15T09:27:05.497Z,61.23
2024-01-15T09:28:05.486Z,62.26
2024-01-15T09:29:05.488Z,60.84
2024-01-15T09:30:05.501Z,60.86
2024-01-15T09:31:05.573Z,62.01
2024-01-15T09:32:05.574Z,62.79
2024-01-15T09:33:05.522Z,62.27
2024-01-15T09:34:05.536Z,61.15
2024-01-15T09:35:05.445Z,62.18
2024-01-15T09:36:05.435Z,61.79
2024-01-15T09:37:05.551Z,60.98
2024-01-15T09:38:05.441Z,59.96
2024-01-15T09:39:05.426Z,62.22
2024-01-15T09:40:05.429Z,60.11
2024-01-15T09:41:05.406Z,59.47
2024-01-15T09:42:05.410Z,60.21
2024-01-15T09:43:05.441Z,59.53
2024-01-15T09:44:05.393Z,58.81
2024-01-15T09:45:05.390Z,61.67
2024-01-15T09:46:05.481Z,60.36
2024-01-15T09:47:05.364Z,61.02
2024-01-15T09:48:05.422Z,60.68
2024-01-15T09:49:05.464Z,60.02
2024-01-15T09:50:06.259Z,62.50
2024-01-15T09:51:05.347Z,61.77
2024-01-15T09:52:09.505Z,59.52
2024-01-15T09:53:07.353Z,62.02
2024-01-15T09:54:05.347Z,61.80
2024-01-15T09:55:05.452Z,61.52
2024-01-15T09:56:05.308Z,62.66
2024-01-15T09:57:05.407Z,60.91
2024-01-15T09:58:05.414Z,60.91
2024-01-15T09:59:05.311Z,60.34
2024-01-15T10:00:05.528Z,61.44
2024-01-15T10:01:08.249Z,61.55
2024-01-15T10:02:05.294Z,59.98
2024-01-15T10:03:05.277Z,61.06
2024-01-15T10:04:05.416Z,59.73
2024-01-15T10:05:05.347Z,60.27
2024-01-15T10:06:05.283Z,60.42
2024-01-15T10:07:05.299Z,61.00
2024-01-15T10:08:05.241Z,60.76
2024-01-15T10:09:05.248Z,60.83
2024-01-15T10:10:06.453Z,61.97
2024-01-15T10:11:05.224Z,61.26
2024-01-15T10:12:05.236Z,60.96
2024-01-15T10:13:05.353Z,62.16
2024-01-15T10:14:05.230Z,60.64
2024-01-15T10:15:05.223Z,60.36
2024-01-15T10:16:05.266Z,62.77
2024-01-15T10:17:05.192Z,61.52
2024-01-15T10:18:05.213Z,60.76
2024-01-15T10:19:05.250Z,59.48
2024-01-15T10:20:05.192Z,60.70
2024-01-15T10:21:05.156Z,57.49
2024-01-15T10:22:05.197Z,59.51
2024-01-15T10:23:05.154Z,59.68
2024-01-15T10:24:05.239Z,58.37
2024-01-15T10:25:05.180Z,59.05
2024-01-15T10:26:05.151Z,60.15
2024-01-15T10:27:05.131Z,59.82
2024-01-15T10:28:05.200Z,60.91
2024-01-15T10:29:05.132Z,63.65
2024-01-15T10:30:05.149Z,59.88
2024-01-15T10:31:05.148Z,63.23
2024-01-15T10:32:05.183Z,62.63
2024-01-15T10:33:05.229Z,62.05
2024-01-15T10:34:05.136Z,62.57
2024-01-15T10:35:05.121Z,61.96
2024-01-15T10:36:05.078Z,61.94
2024-01-15T10:37:05.188Z,61.39
2024-01-15T10:38:05.048Z,63.37
2024-01-15T10:39:05.036Z,64.26
2024-01-15T10:40:06.618Z,64.02
2024-01-15T10:41:05.037Z,62.91
2024-01-15T10:42:05.072Z,63.87
2024-01-15T10:43:05.022Z,62.38
2024-01-15T10:44:05.010Z,63.76
2024-01-15T10:45:05.070Z,63.05
2024-01-15T10:46:05.022Z,62.51
2024-01-15T10:47:04.999Z,62.90
2024-01-15T10:48:05.105Z,63.19
2024-01-15T10:49:05.051Z,62.46
2024-01-15T10:50:05.021Z,61.84
2024-01-15T10:51:04.978Z,60.84
2024-01-15T10:52:05.067Z,60.90
2024-01-15T10:53:04.962Z,60.76
2024-01-15T10:54:05.051Z,62.02
2024-01-15T10:55:08.665Z,60.81
2024-01-15T10:56:06.977Z,59.87
2024-01-15T10:57:05.965Z,61.81
2024-01-15T10:58:05.002Z,60.58
2024-01-15T10:59:04.928Z,59.63
2024-01-15T11:00:04.940Z,59.23
2024-01-15T11:01:05.025Z,63.16
2024-01-15T11:02:05.045Z,61.87
2024-01-15T11:03:05.106Z,61.01
2024-01-15T11:04:04.940Z,62.10
2024-01-15T11:05:04.913Z,60.58
2024-01-15T11:06:05.124Z,61.36
2024-01-15T11:07:05.205Z,61.71
2024-01-15T11:08:04.859Z,62.71
2024-01-15T11:09:05.740Z,61.66
2024-01-15T11:10:04.920Z,60.89
2024-01-15T11:11:04.852Z,59.52
2024-01-15T11:12:04.880Z,60.52
2024-01-15T11:13:04.830Z,60.98
2024-01-15T11:14:04.846Z,60.69
2024-01-15T11:15:04.823Z,60.43
2024-01-15T11:16:04.862Z,60.79
2024-01-15T11:17:04.805Z,60.66
2024-01-15T11:18:05.296Z,60.65
2024-01-15T11:19:04.934Z,61.99
2024-01-15T11:20:04.874Z,60.73
2024-01-15T11:21:04.773Z,61.76
2024-01-15T11:22:04.808Z,61.77
2024-01-15T11:23:04.782Z,60.31
2024-01-15T11:24:04.761Z,62.30
2024-01-15T11:25:04.888Z,62.03
2024-01-15T11:26:04.748Z,62.80
2024-01-15T11:27:04.734Z,59.86
2024-01-15T11:28:04.786Z,60.07
2024-01-15T11:29:04.834Z,60.01
2024-01-15T11:30:04.770Z,62.09
2024-01-15T11:31:04.970Z,62.48
2024-01-15T11:32:05.893Z,61.39
2024-01-15T11:33:04.830Z,61.43
2024-01-15T11:34:04.827Z,62.74
2024-01-15T11:35:05.114Z,60.68
2024-01-15T11:36:04.704Z,63.86
2024-01-15T11:37:04.717Z,62.51
2024-01-15T11:38:04.686Z,63.13
2024-01-15T11:39:04.669Z,60.74
2024-01-15T11:40:04.727Z,62.20
2024-01-15T11:41:04.747Z,63.11
2024-01-15T11:42:04.678Z,62.08
2024-01-15T11:43:04.752Z,63.11
2024-01-15T11:44:04.651Z,63.06
2024-01-15T11:45:04.739Z,61.37
2024-01-15T11:46:04.662Z,60.65
2024-01-15T11:47:04.658Z,61.90
2024-01-15T11:48:04.670Z,63.07
2024-01-15T11:49:04.736Z,63.89
2024-01-15T11:50:04.778Z,62.75
2024-01-15T11:51:04.614Z,62.63
2024-01-15T11:52:04.588Z,62.12
2024-01-15T11:53:07.091Z,60.90
2024-01-15T11:54:05.572Z,61.58
2024-01-15T11:55:04.585Z,64.43
2024-01-15T11:56:04.581Z,62.34
2024-01-15T11:57:04.547Z,61.80
2024-01-15T11:58:04.544Z,62.63
2024-01-15T11:59:05.408Z,60.08
2024-01-15T12:00:05.535Z,61.10
2024-01-15T12:01:04.551Z,62.37
2024-01-15T12:02:04.687Z,62.47
2024-01-15T12:03:04.513Z,63.00
2024-01-15T12:04:04.625Z,61.60
2024-01-15T12:05:04.614Z,62.96
2024-01-15T12:06:04.546Z,63.22
2024-01-15T12:07:04.643Z,63.44
2024-01-15T12:08:04.477Z,61.62
2024-01-15T12:09:04.479Z,63.66
2024-01-15T12:10:04.478Z,62.50
2024-01-15T12:11:04.491Z,61.69
2024-01-15T12:12:04.485Z,60.82
2024-01-15T12:13:04.457Z,60.53
2024-01-15T12:14:04.453Z,59.80
2024-01-15T12:15:04.437Z,61.65
2024-01-15T12:16:04.441Z,63.01
2024-01-15T12:17:06.031Z,62.44
2024-01-15T12:18:05.555Z,61.00
2024-01-15T12:19:04.507Z,62.17
2024-01-15T12:20:04.417Z,64.01
2024-01-15T12:21:04.395Z,61.53
2024-01-15T12:22:04.393Z,63.42
2024-01-15T12:23:06.234Z,63.20
2024-01-15T12:24:04.388Z,61.80
2024-01-15T12:25:04.386Z,62.10
2024-01-15T12:26:04.382Z,62.17
2024-01-15T12:27:04.362Z,62.42
2024-01-15T12:28:04.354Z,62.18
2024-01-15T12:29:04.378Z,62.21
2024-01-15T12:30:04.458Z,62.26
2024-01-15T12:31:04.432Z,61.78
2024-01-15T12:32:04.345Z,61.26
2024-01-15T12:33:04.372Z,61.68
2024-01-15T12:34:04.387Z,62.16
2024-01-15T12:35:04.683Z,63.65
2024-01-15T12:36:05.354Z,64.04
2024-01-15T12:37:04.310Z,62.67
2024-01-15T12:38:04.568Z,62.20
2024-01-15T12:39:04.314Z,60.50
2024-01-15T12:40:04.277Z,62.84
2024-01-15T12:41:04.267Z,62.31
2024-01-15T12:42:04.372Z,62.27
2024-01-15T12:43:04.295Z,62.31
2024-01-15T12:44:04.256Z,61.80
2024-01-15T12:45:04.244Z,62.01
2024-01-15T12:46:04.302Z,59.60
2024-01-15T12:47:04.243Z,61.58
2024-01-15T12:48:04.283Z,62.40
2024-01-15T12:49:04.287Z,64.06
2024-01-15T12:50:10.346Z,62.45
2024-01-15T12:51:06.217Z,61.39
2024-01-15T12:52:04.228Z,60.80